Main page
METAR-TAF:

METAR-TAF

Airports :

Bergen Airport. Flesland

Bergen, Norway

latitude: 60-17N, longitude: 005-14E, elevation: 5 m

Current weather observation

The report was made 26 minutes ago, at 18:20 UTC
Wind 13 kt from the Northwest, varying between West/Northwest and North
Temperature 16°C
Humidity 72%
Pressure 1016 hPa
Visibility 10 km or more
no clouds below 1500 m and no cumulonimbus

METAR: ENBR 231820Z 32013KT 290V350 CAVOK 16/11 Q1016 NOSIG RMK WIND 1200FT 33027KT

Time: 20:46 (18:46 UTC)

Forecast

The report was made 1 hour and 46 minutes ago, at 17:00 UTC
Forecast valid from 23 at 18 UTC to 24 at 18 UTC
Wind 12 kt from the Northwest
Visibility 10 km or more
Few clouds at a height of 4000 ft

TAF: ENBR 231700Z 2318/2418 32012KT 9999 FEW040

Weather observations and forecasts of more than 4000 airports (METAR and TAF reports).

The available stations are represented by yellow and red dots on the map.

Hover mouse over dot to see the name of the station.

Then click to see weather observations and forecasts.

To change the map : click on the green buttons with a black cross to zoom in, on the green button with a dash to zoom out, or on the green arrows for adjacent maps.


METAR-TAF: